createdAt,value
2023-05-06T00:00:36.448Z,12.69
2023-05-06T00:01:36.402Z,12.70
2023-05-06T00:02:36.475Z,12.67
2023-05-06T00:03:36.447Z,12.66
2023-05-06T00:04:36.441Z,12.64
2023-05-06T00:05:36.338Z,12.62
2023-05-06T00:06:36.403Z,12.60
2023-05-06T00:07:36.337Z,12.57
2023-05-06T00:08:36.329Z,12.56
2023-05-06T00:09:36.308Z,12.52
2023-05-06T00:10:36.324Z,12.49
2023-05-06T00:11:36.283Z,12.46
2023-05-06T00:12:36.303Z,12.45
2023-05-06T00:13:36.251Z,12.42
2023-05-06T00:14:36.272Z,12.41
2023-05-06T00:15:36.243Z,12.39
2023-05-06T00:16:36.312Z,12.38
2023-05-06T00:17:36.301Z,12.34
2023-05-06T00:18:36.270Z,12.33
2023-05-06T00:19:36.200Z,12.31
2023-05-06T00:20:36.192Z,12.30
2023-05-06T00:21:36.148Z,12.30
2023-05-06T00:22:36.172Z,12.27
2023-05-06T00:23:36.148Z,12.27
2023-05-06T00:24:36.164Z,12.26
2023-05-06T00:25:36.119Z,12.26
2023-05-06T00:26:36.123Z,12.26
2023-05-06T00:27:36.086Z,12.26
2023-05-06T00:28:36.096Z,12.26
2023-05-06T00:29:36.083Z,12.24
2023-05-06T00:30:36.107Z,12.23
2023-05-06T00:31:36.098Z,12.26
2023-05-06T00:32:36.112Z,12.27
2023-05-06T00:33:36.018Z,12.27
2023-05-06T00:34:36.046Z,12.29
2023-05-06T00:35:36.022Z,12.30
2023-05-06T00:36:36.006Z,12.31
2023-05-06T00:37:35.978Z,12.33
2023-05-06T00:38:36.009Z,12.37
2023-05-06T00:39:35.959Z,12.38
2023-05-06T00:40:35.968Z,12.39
2023-05-06T00:41:35.954Z,12.38
2023-05-06T00:42:35.939Z,12.37
2023-05-06T00:43:35.913Z,12.38
2023-05-06T00:44:35.986Z,12.38
2023-05-06T00:45:35.975Z,12.38
2023-05-06T00:46:35.928Z,12.38
2023-05-06T00:47:35.917Z,12.38
2023-05-06T00:48:35.901Z,12.38
2023-05-06T00:49:35.874Z,12.38
2023-05-06T00:50:35.860Z,12.39
2023-05-06T00:51:35.824Z,12.39
2023-05-06T00:52:35.856Z,12.39
2023-05-06T00:53:35.882Z,12.39
2023-05-06T00:54:35.857Z,12.41
2023-05-06T00:55:35.786Z,12.41
2023-05-06T00:56:35.802Z,12.44
2023-05-06T00:57:35.747Z,12.45
2023-05-06T00:58:35.762Z,12.48
2023-05-06T00:59:35.811Z,12.48
2023-05-06T01:00:35.730Z,12.46
2023-05-06T01:01:35.834Z,12.48
2023-05-06T01:02:46.418Z,12.49
2023-05-06T01:03:36.829Z,12.49
2023-05-06T01:04:35.734Z,12.46
2023-05-06T01:05:35.726Z,12.45
2023-05-06T01:06:35.713Z,12.45
2023-05-06T01:07:35.724Z,12.44
2023-05-06T01:08:35.698Z,12.42
2023-05-06T01:09:35.709Z,12.42
2023-05-06T01:10:35.666Z,12.39
2023-05-06T01:11:35.657Z,12.37
2023-05-06T01:12:35.644Z,12.39
2023-05-06T01:13:35.679Z,12.37
2023-05-06T01:14:35.581Z,12.37
2023-05-06T01:15:35.605Z,12.34
2023-05-06T01:16:35.582Z,12.37
2023-05-06T01:17:35.672Z,12.37
2023-05-06T01:18:35.554Z,12.38
2023-05-06T01:19:35.557Z,12.38
2023-05-06T01:20:35.559Z,12.42
2023-05-06T01:21:35.594Z,12.41
2023-05-06T01:22:35.501Z,12.44
2023-05-06T01:23:35.534Z,12.41
2023-05-06T01:24:35.518Z,12.42
2023-05-06T01:25:35.491Z,12.41
2023-05-06T01:26:35.438Z,12.42
2023-05-06T01:27:35.455Z,12.44
2023-05-06T01:28:35.408Z,12.44
2023-05-06T01:29:35.460Z,12.46
2023-05-06T01:30:35.391Z,12.46
2023-05-06T01:31:35.537Z,12.48
2023-05-06T01:32:35.451Z,12.48
2023-05-06T01:33:35.389Z,12.48
2023-05-06T01:34:35.337Z,12.48
2023-05-06T01:35:35.382Z,12.49
2023-05-06T01:36:35.328Z,12.46
2023-05-06T01:37:35.354Z,12.45
2023-05-06T01:38:35.308Z,12.46
2023-05-06T01:39:35.313Z,12.45
2023-05-06T01:40:35.291Z,12.44
2023-05-06T01:41:35.281Z,12.44
2023-05-06T01:42:35.295Z,12.45
2023-05-06T01:43:35.285Z,12.45
2023-05-06T01:44:35.265Z,12.46
2023-05-06T01:45:35.249Z,12.46
2023-05-06T01:46:35.249Z,12.49
2023-05-06T01:47:35.240Z,12.49
2023-05-06T01:48:35.187Z,12.49
2023-05-06T01:49:35.199Z,12.49
2023-05-06T01:50:35.155Z,12.52
2023-05-06T01:51:35.207Z,12.51
2023-05-06T01:52:35.138Z,12.48
2023-05-06T01:53:35.149Z,12.49
2023-05-06T01:54:35.115Z,12.48
2023-05-06T01:55:35.135Z,12.46
2023-05-06T01:56:35.091Z,12.46
2023-05-06T01:57:35.115Z,12.46
2023-05-06T01:58:35.069Z,12.44
2023-05-06T01:59:35.092Z,12.45
2023-05-06T02:00:35.046Z,12.44
2023-05-06T02:01:35.102Z,12.42
2023-05-06T02:02:35.113Z,12.42
2023-05-06T02:03:35.090Z,12.41
2023-05-06T02:04:36.508Z,12.42
2023-05-06T02:05:35.011Z,12.44
2023-05-06T02:06:34.987Z,12.42
2023-05-06T02:07:34.987Z,12.44
2023-05-06T02:08:34.948Z,12.39
2023-05-06T02:09:34.998Z,12.26
2023-05-06T02:10:34.946Z,12.09
2023-05-06T02:11:34.956Z,11.99
2023-05-06T02:12:34.986Z,11.94
2023-05-06T02:13:34.921Z,11.94
2023-05-06T02:14:34.913Z,11.96
2023-05-06T02:15:34.904Z,11.97
2023-05-06T02:16:34.950Z,12.04
2023-05-06T02:17:34.965Z,12.06
2023-05-06T02:18:34.849Z,12.11
2023-05-06T02:19:34.863Z,12.12
2023-05-06T02:20:34.809Z,12.16
2023-05-06T02:21:35.857Z,12.16
2023-05-06T02:22:34.793Z,12.13
2023-05-06T02:23:34.809Z,12.08
2023-05-06T02:24:34.763Z,12.08
2023-05-06T02:25:34.820Z,12.06
2023-05-06T02:26:34.770Z,12.02
2023-05-06T02:27:34.781Z,11.96
2023-05-06T02:28:34.718Z,11.89
2023-05-06T02:29:34.767Z,11.80
2023-05-06T02:30:34.717Z,11.77
2023-05-06T02:31:34.760Z,11.77
2023-05-06T02:32:34.701Z,11.83
2023-05-06T02:33:34.717Z,11.86
2023-05-06T02:34:34.677Z,11.93
2023-05-06T02:35:34.669Z,11.94
2023-05-06T02:36:34.621Z,11.97
2023-05-06T02:37:34.657Z,12.02
2023-05-06T02:38:34.625Z,12.06
2023-05-06T02:39:34.650Z,12.09
2023-05-06T02:40:34.620Z,12.12
2023-05-06T02:41:34.644Z,12.15
2023-05-06T02:42:34.627Z,12.19
2023-05-06T02:43:34.580Z,12.21
2023-05-06T02:44:34.550Z,12.26
2023-05-06T02:45:34.598Z,12.27
2023-05-06T02:46:34.744Z,12.31
2023-05-06T02:47:34.584Z,12.34
2023-05-06T02:48:34.489Z,12.37
2023-05-06T02:49:34.516Z,12.38
2023-05-06T02:50:34.484Z,12.39
2023-05-06T02:51:34.514Z,12.41
2023-05-06T02:52:34.444Z,12.42
2023-05-06T02:53:34.482Z,12.45
2023-05-06T02:54:34.424Z,12.46
2023-05-06T02:55:35.437Z,12.48
2023-05-06T02:56:34.421Z,12.48
2023-05-06T02:57:34.420Z,12.49
2023-05-06T02:58:34.384Z,12.49
2023-05-06T02:59:34.398Z,12.49
2023-05-06T03:00:36.358Z,12.49
2023-05-06T03:01:34.471Z,12.49
2023-05-06T03:02:34.390Z,12.51
2023-05-06T03:03:34.342Z,12.51
2023-05-06T03:04:34.377Z,12.52
2023-05-06T03:05:34.341Z,12.52
2023-05-06T03:06:34.332Z,12.52
2023-05-06T03:07:34.317Z,12.54
2023-05-06T03:08:34.254Z,12.57
2023-05-06T03:09:34.290Z,12.56
2023-05-06T03:10:34.257Z,12.57
2023-05-06T03:11:34.294Z,12.56
2023-05-06T03:12:34.254Z,12.56
2023-05-06T03:13:34.240Z,12.59
2023-05-06T03:14:34.199Z,12.56
2023-05-06T03:15:34.262Z,12.54
2023-05-06T03:16:34.250Z,12.56
2023-05-06T03:17:34.297Z,12.56
2023-05-06T03:18:34.145Z,12.56
2023-05-06T03:19:34.172Z,12.54
2023-05-06T03:20:34.121Z,12.54
2023-05-06T03:21:34.165Z,12.49
2023-05-06T03:22:35.090Z,12.49
2023-05-06T03:23:34.111Z,12.49
2023-05-06T03:24:34.094Z,12.48
2023-05-06T03:25:34.096Z,12.48
2023-05-06T03:26:34.069Z,12.48
2023-05-06T03:27:34.063Z,12.48
2023-05-06T03:28:34.061Z,12.48
2023-05-06T03:29:34.129Z,12.46
2023-05-06T03:30:34.020Z,12.49
2023-05-06T03:31:34.078Z,12.48
2023-05-06T03:32:34.087Z,12.48
2023-05-06T03:33:33.998Z,12.48
2023-05-06T03:34:33.970Z,12.48
2023-05-06T03:35:33.986Z,12.48
2023-05-06T03:36:33.945Z,12.48
2023-05-06T03:37:33.994Z,12.49
2023-05-06T03:38:33.926Z,12.48
2023-05-06T03:39:33.943Z,12.46
2023-05-06T03:40:33.912Z,12.46
2023-05-06T03:41:33.939Z,12.45
2023-05-06T03:42:33.870Z,12.45
2023-05-06T03:43:33.887Z,12.45
2023-05-06T03:44:33.858Z,12.44
2023-05-06T03:45:33.881Z,12.46
2023-05-06T03:46:33.898Z,12.45
2023-05-06T03:47:33.989Z,12.45
2023-05-06T03:48:33.831Z,12.45
2023-05-06T03:49:33.824Z,12.44
2023-05-06T03:50:33.812Z,12.45
2023-05-06T03:51:33.806Z,12.45
2023-05-06T03:52:33.771Z,12.45
2023-05-06T03:53:33.788Z,12.46
2023-05-06T03:54:33.750Z,12.45
2023-05-06T03:55:33.741Z,12.44
2023-05-06T03:56:33.788Z,12.45
2023-05-06T03:57:33.735Z,12.44
2023-05-06T03:58:33.703Z,12.44
2023-05-06T03:59:33.717Z,12.44
2023-05-06T04:00:33.661Z,12.44
2023-05-06T04:01:33.702Z,12.44
2023-05-06T04:02:33.726Z,12.41
2023-05-06T04:03:33.748Z,12.41
2023-05-06T04:04:33.641Z,12.39
2023-05-06T04:05:33.663Z,12.39
2023-05-06T04:06:33.618Z,12.37
2023-05-06T04:07:33.633Z,12.31
2023-05-06T04:08:33.632Z,12.30
2023-05-06T04:09:33.605Z,12.27
2023-05-06T04:10:33.564Z,12.27
2023-05-06T04:11:33.599Z,12.23
2023-05-06T04:12:33.550Z,12.21
2023-05-06T04:13:33.579Z,12.20
2023-05-06T04:14:33.550Z,12.20
2023-05-06T04:15:33.532Z,12.20
2023-05-06T04:16:33.564Z,12.19
2023-05-06T04:17:33.560Z,12.19
2023-05-06T04:18:33.470Z,12.21
2023-05-06T04:19:33.493Z,12.21
2023-05-06T04:20:33.434Z,12.21
2023-05-06T04:21:33.475Z,12.21
2023-05-06T04:22:33.453Z,12.23
2023-05-06T04:23:33.474Z,12.23
2023-05-06T04:24:33.395Z,12.21
2023-05-06T04:25:33.427Z,12.23
2023-05-06T04:26:33.371Z,12.23
2023-05-06T04:27:33.397Z,12.23
2023-05-06T04:28:33.368Z,12.20
2023-05-06T04:29:33.399Z,12.19
2023-05-06T04:30:33.353Z,12.20
2023-05-06T04:31:33.362Z,12.16
2023-05-06T04:32:33.357Z,12.16
2023-05-06T04:33:33.337Z,12.16
2023-05-06T04:34:33.302Z,12.16
2023-05-06T04:35:33.305Z,12.19
2023-05-06T04:36:33.269Z,12.20
2023-05-06T04:37:33.286Z,12.20
2023-05-06T04:38:33.233Z,12.20
2023-05-06T04:39:33.270Z,12.23
2023-05-06T04:40:33.227Z,12.24
2023-05-06T04:41:33.250Z,12.27
2023-05-06T04:42:33.201Z,12.26
2023-05-06T04:43:33.234Z,12.27
2023-05-06T04:44:33.170Z,12.23
2023-05-06T04:45:33.218Z,12.21
2023-05-06T04:46:33.177Z,12.20
2023-05-06T04:47:33.207Z,12.19
2023-05-06T04:48:33.141Z,12.19
2023-05-06T04:49:33.154Z,12.16
2023-05-06T04:50:33.166Z,12.15
2023-05-06T04:51:33.146Z,12.16
2023-05-06T04:52:33.092Z,12.15
2023-05-06T04:53:33.170Z,12.20
2023-05-06T04:54:33.085Z,12.20
2023-05-06T04:55:33.120Z,12.20
2023-05-06T04:56:33.083Z,12.26
2023-05-06T04:57:33.078Z,12.27
2023-05-06T04:58:33.030Z,12.31
2023-05-06T04:59:33.054Z,12.33
2023-05-06T05:00:33.011Z,12.33
2023-05-06T05:01:33.085Z,12.37
2023-05-06T05:02:33.268Z,12.37
2023-05-06T05:03:33.122Z,12.34
2023-05-06T05:04:32.965Z,12.33
2023-05-06T05:05:32.969Z,12.33
2023-05-06T05:06:32.975Z,12.34
2023-05-06T05:07:32.970Z,12.34
2023-05-06T05:08:32.925Z,12.37
2023-05-06T05:09:32.919Z,12.38
2023-05-06T05:10:32.886Z,12.39
2023-05-06T05:11:32.922Z,12.39
2023-05-06T05:12:32.933Z,12.42
2023-05-06T05:13:32.849Z,12.44
2023-05-06T05:14:32.861Z,12.46
2023-05-06T05:15:32.838Z,12.49
2023-05-06T05:16:32.894Z,12.52
2023-05-06T05:17:32.856Z,12.54
2023-05-06T05:18:32.828Z,12.59
2023-05-06T05:19:32.819Z,12.64
2023-05-06T05:20:32.855Z,12.69
2023-05-06T05:21:32.774Z,12.74
2023-05-06T05:22:32.785Z,12.81
2023-05-06T05:23:32.733Z,12.85
2023-05-06T05:24:32.754Z,12.96
2023-05-06T05:25:32.727Z,13.04
2023-05-06T05:26:32.730Z,13.12
2023-05-06T05:27:32.708Z,13.17
2023-05-06T05:28:32.717Z,13.20
2023-05-06T05:29:32.692Z,13.32
2023-05-06T05:30:32.689Z,13.38
2023-05-06T05:31:32.685Z,13.43
2023-05-06T05:32:32.691Z,13.44
2023-05-06T05:33:32.680Z,13.49
2023-05-06T05:34:32.691Z,13.52
2023-05-06T05:35:32.607Z,13.56
2023-05-06T05:36:32.614Z,13.62
2023-05-06T05:37:32.654Z,13.67
2023-05-06T05:38:32.599Z,13.71
2023-05-06T05:39:32.559Z,13.74
2023-05-06T05:40:32.594Z,13.76
2023-05-06T05:41:32.546Z,13.79
2023-05-06T05:42:32.552Z,13.83
2023-05-06T05:43:32.542Z,13.81
2023-05-06T05:44:32.531Z,13.81
2023-05-06T05:45:32.517Z,13.88
2023-05-06T05:46:32.557Z,13.95
2023-05-06T05:47:32.533Z,13.99
2023-05-06T05:48:32.504Z,14.01
2023-05-06T05:49:32.444Z,14.06
2023-05-06T05:50:32.489Z,14.07
2023-05-06T05:51:32.452Z,14.13
2023-05-06T05:52:32.439Z,14.14
2023-05-06T05:53:32.414Z,14.19
2023-05-06T05:54:32.429Z,14.21
2023-05-06T05:55:32.370Z,14.25
2023-05-06T05:56:32.414Z,14.25
2023-05-06T05:57:32.364Z,14.24
2023-05-06T05:58:32.373Z,14.25
2023-05-06T05:59:32.335Z,14.28
2023-05-06T06:00:32.348Z,14.31
2023-05-06T06:01:32.333Z,14.37
2023-05-06T06:02:32.380Z,14.42
2023-05-06T06:03:32.444Z,14.49
2023-05-06T06:04:32.418Z,14.57
2023-05-06T06:05:32.292Z,14.68
2023-05-06T06:06:32.261Z,14.75
2023-05-06T06:07:32.243Z,14.86
2023-05-06T06:08:32.285Z,14.88
2023-05-06T06:09:32.247Z,14.88
2023-05-06T06:10:32.259Z,14.90
2023-05-06T06:11:32.191Z,14.94
2023-05-06T06:12:32.220Z,14.98
2023-05-06T06:13:32.407Z,15.01
2023-05-06T06:14:32.232Z,15.03
2023-05-06T06:15:32.152Z,15.03
2023-05-06T06:16:32.217Z,15.05
2023-05-06T06:17:32.147Z,15.06
2023-05-06T06:18:32.141Z,15.05
2023-05-06T06:19:32.111Z,15.02
2023-05-06T06:20:32.130Z,14.98
2023-05-06T06:21:32.070Z,14.94
2023-05-06T06:22:32.158Z,14.91
2023-05-06T06:23:32.080Z,14.87
2023-05-06T06:24:32.072Z,14.86
2023-05-06T06:25:32.063Z,14.84
2023-05-06T06:26:32.075Z,14.80
2023-05-06T06:27:32.022Z,14.81
2023-05-06T06:28:32.044Z,14.75
2023-05-06T06:29:31.995Z,14.64
2023-05-06T06:30:32.017Z,14.54
2023-05-06T06:31:33.474Z,14.53
2023-05-06T06:32:32.057Z,14.52
2023-05-06T06:33:31.965Z,14.56
2023-05-06T06:34:31.967Z,14.65
2023-05-06T06:35:31.924Z,14.75
2023-05-06T06:36:32.121Z,14.84
2023-05-06T06:37:31.900Z,14.91
2023-05-06T06:38:31.925Z,14.99
2023-05-06T06:39:31.917Z,15.05
2023-05-06T06:40:31.897Z,15.13
2023-05-06T06:41:31.850Z,15.19
2023-05-06T06:42:31.904Z,15.19
2023-05-06T06:43:31.859Z,15.20
2023-05-06T06:44:31.858Z,15.21
2023-05-06T06:45:31.815Z,15.28
2023-05-06T06:46:31.850Z,15.38
2023-05-06T06:47:31.851Z,15.45
2023-05-06T06:48:31.812Z,15.43
2023-05-06T06:49:31.806Z,15.43
2023-05-06T06:50:31.830Z,15.41
2023-05-06T06:51:31.765Z,15.38
2023-05-06T06:52:31.751Z,15.38
2023-05-06T06:53:31.745Z,15.36
2023-05-06T06:54:31.780Z,15.38
2023-05-06T06:55:31.748Z,15.41
2023-05-06T06:56:31.768Z,15.42
2023-05-06T06:57:31.746Z,15.19
2023-05-06T06:58:31.674Z,15.09
2023-05-06T06:59:31.647Z,15.08
2023-05-06T07:00:31.667Z,15.05
2023-05-06T07:01:31.653Z,15.05
2023-05-06T07:02:31.759Z,15.08
2023-05-06T07:03:31.626Z,15.09
2023-05-06T07:04:31.680Z,15.15
2023-05-06T07:05:31.597Z,15.24
2023-05-06T07:06:31.594Z,15.31
2023-05-06T07:07:33.033Z,15.35
2023-05-06T07:08:31.612Z,15.41
2023-05-06T07:09:32.212Z,15.42
2023-05-06T07:10:31.584Z,15.46
2023-05-06T07:11:31.536Z,15.49
2023-05-06T07:12:32.998Z,15.46
2023-05-06T07:13:31.502Z,15.42
2023-05-06T07:14:31.507Z,15.42
2023-05-06T07:15:31.509Z,15.45
2023-05-06T07:16:31.514Z,15.46
2023-05-06T07:17:31.434Z,15.39
2023-05-06T07:18:31.630Z,15.38
2023-05-06T07:19:31.424Z,15.36
2023-05-06T07:20:31.516Z,15.33
2023-05-06T07:21:31.400Z,15.33
2023-05-06T07:22:31.434Z,15.31
2023-05-06T07:23:32.316Z,15.43
2023-05-06T07:24:31.387Z,15.52
2023-05-06T07:25:31.369Z,15.60
2023-05-06T07:26:31.402Z,15.54
2023-05-06T07:27:31.314Z,15.56
2023-05-06T07:28:31.353Z,15.41
2023-05-06T07:29:31.305Z,15.38
2023-05-06T07:30:31.310Z,15.27
2023-05-06T07:31:31.369Z,15.28
2023-05-06T07:32:31.315Z,15.39
2023-05-06T07:33:31.255Z,15.41
2023-05-06T07:34:31.299Z,15.27
2023-05-06T07:35:31.245Z,15.20
2023-05-06T07:36:31.280Z,15.11
2023-05-06T07:37:31.218Z,15.06
2023-05-06T07:38:31.222Z,15.09
2023-05-06T07:39:31.188Z,15.09
2023-05-06T07:40:31.207Z,15.15
2023-05-06T07:41:31.170Z,15.15
2023-05-06T07:42:31.210Z,15.01
2023-05-06T07:43:31.149Z,15.12
2023-05-06T07:44:31.153Z,15.23
2023-05-06T07:45:31.193Z,15.33
2023-05-06T07:46:31.289Z,15.42
2023-05-06T07:47:31.224Z,15.52
2023-05-06T07:48:31.236Z,15.59
2023-05-06T07:49:31.092Z,15.63
2023-05-06T07:50:31.086Z,15.74
2023-05-06T07:51:31.076Z,15.82
2023-05-06T07:52:31.073Z,15.88
2023-05-06T07:53:31.035Z,15.85
2023-05-06T07:54:31.061Z,15.59
2023-05-06T07:55:32.007Z,15.46
2023-05-06T07:56:31.052Z,15.49
2023-05-06T07:57:31.026Z,15.56
2023-05-06T07:58:31.014Z,15.57
2023-05-06T07:59:30.971Z,15.63
2023-05-06T08:00:31.004Z,15.56
2023-05-06T08:01:30.965Z,15.49
2023-05-06T08:02:31.044Z,15.59
2023-05-06T08:03:31.047Z,15.68
2023-05-06T08:04:31.002Z,15.81
2023-05-06T08:05:30.902Z,15.89
2023-05-06T08:06:30.934Z,15.99
2023-05-06T08:07:30.908Z,16.04
2023-05-06T08:08:30.919Z,16.11
2023-05-06T08:09:30.984Z,16.07
2023-05-06T08:10:30.855Z,16.07
2023-05-06T08:11:30.848Z,16.22
2023-05-06T08:12:30.843Z,16.18
2023-05-06T08:13:30.813Z,16.15
2023-05-06T08:14:30.818Z,16.16
2023-05-06T08:15:30.799Z,16.33
2023-05-06T08:16:30.821Z,16.42
2023-05-06T08:17:30.785Z,16.40
2023-05-06T08:18:30.965Z,16.25
2023-05-06T08:19:30.766Z,16.15
2023-05-06T08:20:30.776Z,16.11
2023-05-06T08:21:30.712Z,16.04
2023-05-06T08:22:30.756Z,16.01
2023-05-06T08:23:30.701Z,16.00
2023-05-06T08:24:30.703Z,16.00
2023-05-06T08:25:30.718Z,16.00
2023-05-06T08:26:30.774Z,16.03
2023-05-06T08:27:30.686Z,16.06
2023-05-06T08:28:30.965Z,16.01
2023-05-06T08:29:30.956Z,15.85
2023-05-06T08:30:30.652Z,15.99
2023-05-06T08:31:30.688Z,16.00
2023-05-06T08:32:30.967Z,16.11
2023-05-06T08:33:30.629Z,16.20
2023-05-06T08:34:30.650Z,16.20
2023-05-06T08:35:30.594Z,16.07
2023-05-06T08:36:30.577Z,16.11
2023-05-06T08:37:30.550Z,16.18
2023-05-06T08:38:30.603Z,16.27
2023-05-06T08:39:30.527Z,16.38
2023-05-06T08:40:30.548Z,16.49
2023-05-06T08:41:30.524Z,16.59
2023-05-06T08:42:31.984Z,16.70
2023-05-06T08:43:30.516Z,16.80
2023-05-06T08:44:30.534Z,16.95
2023-05-06T08:45:30.549Z,17.04
2023-05-06T08:46:30.478Z,17.03
2023-05-06T08:47:31.425Z,17.06
2023-05-06T08:48:30.495Z,17.18
2023-05-06T08:49:30.433Z,17.25
2023-05-06T08:50:30.439Z,17.26
2023-05-06T08:51:30.392Z,17.29
2023-05-06T08:52:30.480Z,17.28
2023-05-06T08:53:30.394Z,17.25
2023-05-06T08:54:30.409Z,17.29
2023-05-06T08:55:30.346Z,17.25
2023-05-06T08:56:30.385Z,17.29
2023-05-06T08:57:30.323Z,17.33
2023-05-06T08:58:31.847Z,17.35
2023-05-06T08:59:30.318Z,17.36
2023-05-06T09:00:30.314Z,17.38
2023-05-06T09:01:30.339Z,17.30
2023-05-06T09:02:31.926Z,17.38
2023-05-06T09:03:30.429Z,17.44
2023-05-06T09:04:30.265Z,17.51
2023-05-06T09:05:30.255Z,17.59
2023-05-06T09:06:30.262Z,17.63
2023-05-06T09:07:30.209Z,17.64
2023-05-06T09:08:30.351Z,17.54
2023-05-06T09:09:30.197Z,17.53
2023-05-06T09:10:30.640Z,17.57
2023-05-06T09:11:30.166Z,17.67
2023-05-06T09:12:30.192Z,17.41
2023-05-06T09:13:30.152Z,17.17
2023-05-06T09:14:31.647Z,17.14
2023-05-06T09:15:30.161Z,17.13
2023-05-06T09:16:30.207Z,17.18
2023-05-06T09:17:30.124Z,17.10
2023-05-06T09:18:30.127Z,17.06
2023-05-06T09:19:30.068Z,17.04
2023-05-06T09:20:30.115Z,17.07
2023-05-06T09:21:30.072Z,17.08
2023-05-06T09:22:30.116Z,17.18
2023-05-06T09:23:31.558Z,17.29
2023-05-06T09:24:31.532Z,17.32
2023-05-06T09:25:31.486Z,17.46
2023-05-06T09:26:31.610Z,17.51
2023-05-06T09:27:31.430Z,17.43
2023-05-06T09:28:31.466Z,17.36
2023-05-06T09:29:31.480Z,17.47
2023-05-06T09:30:30.695Z,17.38
2023-05-06T09:31:31.525Z,17.28
2023-05-06T09:32:30.062Z,17.32
2023-05-06T09:33:30.530Z,17.35
2023-05-06T09:34:29.972Z,17.35
2023-05-06T09:35:29.971Z,17.50
2023-05-06T09:36:29.923Z,17.62
2023-05-06T09:37:30.879Z,17.70
2023-05-06T09:38:29.862Z,17.91
2023-05-06T09:39:30.506Z,18.09
2023-05-06T09:40:29.880Z,18.24
2023-05-06T09:41:30.441Z,18.31
2023-05-06T09:42:30.726Z,18.28
2023-05-06T09:43:29.829Z,18.29
2023-05-06T09:44:30.643Z,18.42
2023-05-06T09:45:29.913Z,18.47
2023-05-06T09:46:29.811Z,18.33
2023-05-06T09:47:29.854Z,18.07
2023-05-06T09:48:29.787Z,17.99
2023-05-06T09:49:29.771Z,17.94
2023-05-06T09:50:29.965Z,17.82
2023-05-06T09:51:29.929Z,17.71
2023-05-06T09:52:29.782Z,17.64
2023-05-06T09:53:31.219Z,17.63
2023-05-06T09:54:30.656Z,17.63
2023-05-06T09:55:29.733Z,17.67
2023-05-06T09:56:29.692Z,17.69
2023-05-06T09:57:29.705Z,17.78
2023-05-06T09:58:29.642Z,17.89
2023-05-06T09:59:29.698Z,17.92
2023-05-06T10:00:31.105Z,17.97
2023-05-06T10:01:36.581Z,17.92
2023-05-06T10:02:32.210Z,17.88
2023-05-06T10:03:29.709Z,17.88
2023-05-06T10:04:29.861Z,17.91
2023-05-06T10:05:29.621Z,17.95
2023-05-06T10:06:30.346Z,18.07
2023-05-06T10:07:29.663Z,18.21
2023-05-06T10:08:29.567Z,18.34
2023-05-06T10:09:29.538Z,18.52
2023-05-06T10:10:29.531Z,18.68
2023-05-06T10:11:29.593Z,18.82
2023-05-06T10:12:29.520Z,18.94
2023-05-06T10:13:29.503Z,19.02
2023-05-06T10:14:29.465Z,19.14
2023-05-06T10:15:29.469Z,19.20
2023-05-06T10:16:29.500Z,19.20
2023-05-06T10:17:29.520Z,19.29
2023-05-06T10:18:29.453Z,19.10
2023-05-06T10:19:29.912Z,19.02
2023-05-06T10:20:29.400Z,18.99
2023-05-06T10:21:29.421Z,18.91
2023-05-06T10:22:29.389Z,18.79
2023-05-06T10:23:29.426Z,18.70
2023-05-06T10:24:29.347Z,18.67
2023-05-06T10:25:29.434Z,18.68
2023-05-06T10:26:29.348Z,18.68
2023-05-06T10:27:29.362Z,18.62
2023-05-06T10:28:30.594Z,18.59
2023-05-06T10:29:29.319Z,18.58
2023-05-06T10:30:29.285Z,18.58
2023-05-06T10:31:29.373Z,18.59
2023-05-06T10:32:29.295Z,18.82
2023-05-06T10:33:29.295Z,19.01
2023-05-06T10:34:29.230Z,19.17
2023-05-06T10:35:29.307Z,19.29
2023-05-06T10:36:29.225Z,19.38
2023-05-06T10:37:29.232Z,19.47
2023-05-06T10:38:29.218Z,19.51
2023-05-06T10:39:29.187Z,19.51
2023-05-06T10:40:29.167Z,19.48
2023-05-06T10:41:29.207Z,19.43
2023-05-06T10:42:29.144Z,19.55
2023-05-06T10:43:29.152Z,19.38
2023-05-06T10:44:29.160Z,19.23
2023-05-06T10:45:29.176Z,19.31
2023-05-06T10:46:29.131Z,19.40
2023-05-06T10:47:29.160Z,19.40
2023-05-06T10:48:29.120Z,19.40
2023-05-06T10:49:29.152Z,19.46
2023-05-06T10:50:29.071Z,19.46
2023-05-06T10:51:29.127Z,19.40
2023-05-06T10:52:29.026Z,19.50
2023-05-06T10:53:29.038Z,19.47
2023-05-06T10:54:28.990Z,19.33
2023-05-06T10:55:29.053Z,19.24
2023-05-06T10:56:28.988Z,19.21
2023-05-06T10:57:29.025Z,18.99
2023-05-06T10:58:28.963Z,18.87
2023-05-06T10:59:28.972Z,18.82
2023-05-06T11:00:29.921Z,18.83
2023-05-06T11:01:29.068Z,18.82
2023-05-06T11:02:29.014Z,18.79
2023-05-06T11:03:29.025Z,18.80
2023-05-06T11:04:28.910Z,18.86
2023-05-06T11:05:28.903Z,18.90
2023-05-06T11:06:28.879Z,18.91
2023-05-06T11:07:29.008Z,18.94
2023-05-06T11:08:28.865Z,18.83
2023-05-06T11:09:28.877Z,18.82
2023-05-06T11:10:28.835Z,18.73
2023-05-06T11:11:28.853Z,18.61
2023-05-06T11:12:28.833Z,18.65
2023-05-06T11:13:29.059Z,18.68
2023-05-06T11:14:28.782Z,18.70
2023-05-06T11:15:28.842Z,18.73
2023-05-06T11:16:28.810Z,18.95
2023-05-06T11:17:28.870Z,19.18
2023-05-06T11:18:28.744Z,19.33
2023-05-06T11:19:28.797Z,19.39
2023-05-06T11:20:28.726Z,19.46
2023-05-06T11:21:28.746Z,19.36
2023-05-06T11:22:28.730Z,19.23
2023-05-06T11:23:28.707Z,19.21
2023-05-06T11:24:28.741Z,19.20
2023-05-06T11:25:28.700Z,19.20
2023-05-06T11:26:28.663Z,19.18
2023-05-06T11:27:28.781Z,19.25
2023-05-06T11:28:28.645Z,19.35
2023-05-06T11:29:28.668Z,19.39
2023-05-06T11:30:28.635Z,19.43
2023-05-06T11:31:28.737Z,19.48
2023-05-06T11:32:28.594Z,19.43
2023-05-06T11:33:28.592Z,19.39
2023-05-06T11:34:28.579Z,19.47
2023-05-06T11:35:28.575Z,19.60
2023-05-06T11:36:28.569Z,19.63
2023-05-06T11:37:28.589Z,19.61
2023-05-06T11:38:28.550Z,19.65
2023-05-06T11:39:28.523Z,19.75
2023-05-06T11:40:28.518Z,19.79
2023-05-06T11:41:28.509Z,19.88
2023-05-06T11:42:28.473Z,19.97
2023-05-06T11:43:28.524Z,20.03
2023-05-06T11:44:28.440Z,20.09
2023-05-06T11:45:28.477Z,20.09
2023-05-06T11:46:28.431Z,19.97
2023-05-06T11:47:28.486Z,19.88
2023-05-06T11:48:28.409Z,19.72
2023-05-06T11:49:28.802Z,19.61
2023-05-06T11:50:28.431Z,19.50
2023-05-06T11:51:28.401Z,19.35
2023-05-06T11:52:28.351Z,19.33
2023-05-06T11:53:28.391Z,19.24
2023-05-06T11:54:28.377Z,19.13
2023-05-06T11:55:28.350Z,19.20
2023-05-06T11:56:28.313Z,19.20
2023-05-06T11:57:28.336Z,19.14
2023-05-06T11:58:28.311Z,19.15
2023-05-06T11:59:28.339Z,19.31
2023-05-06T12:00:28.285Z,19.47
2023-05-06T12:01:28.299Z,19.46
2023-05-06T12:02:28.340Z,19.55
2023-05-06T12:03:28.388Z,19.69
2023-05-06T12:04:28.277Z,19.76
2023-05-06T12:05:28.236Z,19.68
2023-05-06T12:06:28.228Z,19.73
2023-05-06T12:07:28.254Z,19.87
2023-05-06T12:08:28.612Z,19.94
2023-05-06T12:09:28.196Z,19.95
2023-05-06T12:10:28.159Z,20.05
2023-05-06T12:11:28.194Z,19.97
2023-05-06T12:12:28.190Z,19.97
2023-05-06T12:13:28.162Z,20.03
2023-05-06T12:14:28.118Z,20.12
2023-05-06T12:15:28.143Z,20.13
2023-05-06T12:16:28.123Z,20.20
2023-05-06T12:17:28.114Z,20.23
2023-05-06T12:18:28.197Z,20.33
2023-05-06T12:19:28.071Z,20.43
2023-05-06T12:20:28.044Z,20.53
2023-05-06T12:21:28.066Z,20.65
2023-05-06T12:22:28.013Z,20.65
2023-05-06T12:23:28.014Z,20.62
2023-05-06T12:24:28.019Z,20.53
2023-05-06T12:25:28.003Z,20.54
2023-05-06T12:26:27.975Z,20.56
2023-05-06T12:27:27.966Z,20.47
2023-05-06T12:28:27.976Z,20.49
2023-05-06T12:29:27.992Z,20.53
2023-05-06T12:30:27.926Z,20.54
2023-05-06T12:31:27.979Z,20.56
2023-05-06T12:32:27.995Z,20.58
2023-05-06T12:33:28.009Z,20.69
2023-05-06T12:34:27.911Z,20.77
2023-05-06T12:35:27.904Z,20.83
2023-05-06T12:36:28.842Z,20.81
2023-05-06T12:37:27.885Z,20.81
2023-05-06T12:38:27.842Z,20.83
2023-05-06T12:39:27.855Z,20.84
2023-05-06T12:40:27.820Z,20.83
2023-05-06T12:41:27.901Z,20.93
2023-05-06T12:42:27.793Z,20.90
2023-05-06T12:43:27.815Z,20.79
2023-05-06T12:44:27.777Z,20.66
2023-05-06T12:45:27.821Z,20.58
2023-05-06T12:46:27.777Z,20.54
2023-05-06T12:47:27.790Z,20.49
2023-05-06T12:48:27.724Z,20.33
2023-05-06T12:49:27.737Z,20.24
2023-05-06T12:50:27.732Z,20.25
2023-05-06T12:51:27.724Z,20.27
2023-05-06T12:52:27.702Z,20.33